createdAt,value
2019-03-24T11:37:29.964Z,58.40
2019-03-24T11:39:58.559Z,60.83
2019-03-24T11:42:27.146Z,53.67
2019-03-24T11:44:55.731Z,58.13
2019-03-24T11:47:26.799Z,58.80
2019-03-24T11:49:54.531Z,54.83
2019-03-24T11:52:23.089Z,49.57
2019-03-24T11:54:51.682Z,50.63
2019-03-24T11:57:20.301Z,55.07
2019-03-24T11:59:48.859Z,54.83
2019-03-24T12:02:17.448Z,48.37
2019-03-24T12:04:46.028Z,56.10
2019-03-24T12:07:14.655Z,51.60
2019-03-24T12:09:43.304Z,56.37
2019-03-24T12:12:11.877Z,52.47
2019-03-24T12:14:40.481Z,50.00
2019-03-24T12:17:09.093Z,56.47
2019-03-24T12:19:37.670Z,54.53
2019-03-24T12:22:06.336Z,54.80
2019-03-24T12:24:34.929Z,56.57
2019-03-24T12:27:03.471Z,53.23
2019-03-24T12:29:32.076Z,54.20
2019-03-24T12:32:00.639Z,60.67
2019-03-24T12:34:29.215Z,54.20
2019-03-24T12:36:57.766Z,55.37
2019-03-24T12:39:26.375Z,63.53
2019-03-24T12:41:54.939Z,49.40
2019-03-24T12:44:23.610Z,54.40
2019-03-24T12:46:52.319Z,48.83
2019-03-24T12:49:20.880Z,50.33
2019-03-24T12:51:49.465Z,45.47
2019-03-24T12:54:18.049Z,48.60
2019-03-24T12:56:46.643Z,41.17
2019-03-24T12:59:15.303Z,42.10
2019-03-24T13:01:43.875Z,45.03
2019-03-24T13:04:12.429Z,43.07
2019-03-24T13:06:41.003Z,41.50
2019-03-24T13:09:09.563Z,38.77
2019-03-24T13:11:38.349Z,40.03
2019-03-24T13:14:07.146Z,47.97
2019-03-24T13:16:35.771Z,46.63
2019-03-24T13:19:04.474Z,47.43
2019-03-24T13:21:33.060Z,47.30
2019-03-24T13:24:01.631Z,57.50
2019-03-24T13:26:30.212Z,46.30
2019-03-24T13:28:58.967Z,45.23
2019-03-24T13:31:27.603Z,43.77
2019-03-24T13:33:56.167Z,45.80
2019-03-24T13:36:24.791Z,48.93
2019-03-24T13:38:53.422Z,44.70
2019-03-24T13:41:22.135Z,43.90
2019-03-24T13:43:50.796Z,48.87
2019-03-24T13:46:19.411Z,51.83
2019-03-24T13:48:47.956Z,50.00
2019-03-24T13:51:16.731Z,45.73
2019-03-24T13:53:45.303Z,50.33
2019-03-24T13:56:13.889Z,46.77
2019-03-24T13:58:42.487Z,49.63
2019-03-24T14:01:11.880Z,51.60
2019-03-24T14:03:40.444Z,46.03
2019-03-24T14:06:09.048Z,52.50
2019-03-24T14:08:37.647Z,50.57
2019-03-24T14:11:06.388Z,50.73
2019-03-24T14:13:34.948Z,48.87
2019-03-24T14:16:03.686Z,45.93
2019-03-24T14:18:32.381Z,48.10
2019-03-24T14:21:01.084Z,51.83
2019-03-24T14:23:29.715Z,46.67
2019-03-24T14:25:58.276Z,47.57
2019-03-24T14:28:26.858Z,45.97
2019-03-24T14:30:55.469Z,45.97
2019-03-24T14:33:24.129Z,42.63
2019-03-24T14:35:52.699Z,47.43
2019-03-24T14:38:21.355Z,47.90
2019-03-24T14:40:49.942Z,49.63
2019-03-24T14:43:18.530Z,48.20
2019-03-24T14:45:47.091Z,43.70
2019-03-24T14:48:15.814Z,52.03
2019-03-24T14:50:53.965Z,48.20
2019-03-24T14:53:14.833Z,45.70
2019-03-24T14:55:43.391Z,43.03
2019-03-24T14:58:12.078Z,51.70
2019-03-24T15:00:42.184Z,43.20
2019-03-24T15:03:11.103Z,43.60
2019-03-24T15:05:39.759Z,43.20
2019-03-24T15:08:08.713Z,50.10
2019-03-24T15:10:37.618Z,44.97
2019-03-24T15:13:06.333Z,50.60
2019-03-24T15:15:34.963Z,47.60
2019-03-24T15:18:03.547Z,48.55
2019-03-24T15:20:32.147Z,48.37
2019-03-24T15:23:00.739Z,48.87
2019-03-24T15:25:29.296Z,46.80
2019-03-24T15:27:57.897Z,48.37
2019-03-24T15:30:26.536Z,46.07
2019-03-24T15:32:55.119Z,47.93
2019-03-24T15:35:23.751Z,45.40
2019-03-24T15:37:52.429Z,46.67
2019-03-24T15:40:20.983Z,54.53
2019-03-24T15:42:49.570Z,49.90
2019-03-24T15:45:18.260Z,47.30
2019-03-24T15:47:46.912Z,55.77
2019-03-24T15:50:15.536Z,51.47
2019-03-24T15:52:44.119Z,53.43
2019-03-24T15:55:12.828Z,54.30
2019-03-24T15:57:41.408Z,47.53
2019-03-24T16:00:11.379Z,50.93
2019-03-24T16:02:40.295Z,48.40
2019-03-24T16:05:08.891Z,49.83
2019-03-24T16:07:37.548Z,46.07
2019-03-24T16:10:07.568Z,53.03
2019-03-24T16:12:36.276Z,57.73
2019-03-24T16:15:07.065Z,50.37
2019-03-24T16:17:35.626Z,47.73
2019-03-24T16:20:09.760Z,52.27
2019-03-24T16:22:36.721Z,54.37
2019-03-24T16:25:07.442Z,54.83
2019-03-24T16:27:36.106Z,58.27
2019-03-24T16:30:06.540Z,61.10
2019-03-24T16:32:35.115Z,59.23
2019-03-24T16:35:04.448Z,63.40
2019-03-24T16:37:33.019Z,66.17
2019-03-24T16:40:01.613Z,66.07
2019-03-24T16:42:30.248Z,67.30
2019-03-24T16:44:58.828Z,69.10
2019-03-24T16:47:27.392Z,65.57
2019-03-24T16:49:55.979Z,60.93
2019-03-24T16:52:24.547Z,69.73
2019-03-24T16:54:53.165Z,62.53
2019-03-24T16:57:21.711Z,65.07
2019-03-24T16:59:50.233Z,65.40
2019-03-24T17:02:18.782Z,70.97
2019-03-24T17:04:47.463Z,71.23
2019-03-24T17:07:17.675Z,66.90
2019-03-24T17:09:46.529Z,69.00
2019-03-24T17:12:16.934Z,74.60
2019-03-24T17:14:45.483Z,70.00
2019-03-24T17:17:14.116Z,66.90
2019-03-24T17:19:42.691Z,73.57
2019-03-24T17:22:11.252Z,76.80
2019-03-24T17:24:39.854Z,69.17
2019-03-24T17:27:08.395Z,71.20
2019-03-24T17:29:37.128Z,63.90
2019-03-24T17:32:05.773Z,69.60
2019-03-24T17:34:34.347Z,68.03
2019-03-24T17:37:02.907Z,70.40
2019-03-24T17:39:31.566Z,68.20
2019-03-24T17:42:00.133Z,72.87
2019-03-24T17:44:28.791Z,72.17
2019-03-24T17:46:57.352Z,73.93
2019-03-24T17:49:25.938Z,68.17
2019-03-24T17:52:00.583Z,68.73
2019-03-24T17:54:24.783Z,73.07
2019-03-24T17:56:53.355Z,71.47
2019-03-24T17:59:21.919Z,76.63
2019-03-24T18:01:50.502Z,71.07
2019-03-24T18:04:24.611Z,69.43
2019-03-24T18:06:49.291Z,78.17
2019-03-24T18:09:17.851Z,65.53
2019-03-24T18:11:46.431Z,76.93
2019-03-24T18:14:15.093Z,70.30
2019-03-24T18:16:43.693Z,75.73
2019-03-24T18:19:12.320Z,69.77
2019-03-24T18:21:40.916Z,72.07
2019-03-24T18:24:09.469Z,72.43
2019-03-24T18:26:38.056Z,73.50
2019-03-24T18:29:06.610Z,72.83
2019-03-24T18:31:35.239Z,75.83
2019-03-24T18:34:03.927Z,77.10
2019-03-24T18:36:32.603Z,80.57
2019-03-24T18:39:01.163Z,76.97
2019-03-24T18:41:29.758Z,82.70
2019-03-24T18:43:58.367Z,79.83
2019-03-24T18:46:26.970Z,79.00
2019-03-24T18:48:55.600Z,77.63
2019-03-24T18:51:24.179Z,81.47
2019-03-24T18:53:52.813Z,79.20
2019-03-24T18:56:21.500Z,76.57
2019-03-24T18:58:50.062Z,81.70
2019-03-24T19:01:18.744Z,74.83
2019-03-24T19:03:47.330Z,83.03
2019-03-24T19:06:15.895Z,80.23
2019-03-24T19:08:44.504Z,78.17
2019-03-24T19:11:13.080Z,73.27
2019-03-24T19:13:41.663Z,77.20
2019-03-24T19:16:10.247Z,75.23
2019-03-24T19:18:38.807Z,87.80
2019-03-24T19:21:07.431Z,81.77
2019-03-24T19:23:36.049Z,84.83
2019-03-24T19:26:04.708Z,83.07
2019-03-24T19:28:33.284Z,80.70
2019-03-24T19:31:01.966Z,86.35
2019-03-24T19:33:30.593Z,77.13
2019-03-24T19:35:59.381Z,82.17
2019-03-24T19:38:28.684Z,83.37
2019-03-24T19:40:57.329Z,80.90
2019-03-24T19:43:25.935Z,92.50
2019-03-24T19:45:54.504Z,82.23
2019-03-24T19:48:23.103Z,83.70
2019-03-24T19:50:51.670Z,83.50
2019-03-24T19:53:20.319Z,81.70
2019-03-24T19:55:48.916Z,88.97
2019-03-24T19:58:17.460Z,83.73
2019-03-24T20:00:46.028Z,81.37
2019-03-24T20:03:14.701Z,97.87
2019-03-24T20:05:43.405Z,87.90
2019-03-24T20:08:12.067Z,98.67
2019-03-24T20:10:40.716Z,100.83
2019-03-24T20:13:09.489Z,108.70
2019-03-24T20:15:38.061Z,103.20
2019-03-24T20:18:06.708Z,101.53
2019-03-24T20:20:35.345Z,91.07
2019-03-24T20:23:04.063Z,88.77
2019-03-24T20:25:32.596Z,92.47
2019-03-24T20:28:01.304Z,85.63
2019-03-24T20:30:29.979Z,91.40
2019-03-24T20:32:58.754Z,89.83
2019-03-24T20:35:27.459Z,85.83
2019-03-24T20:37:56.155Z,89.17
2019-03-24T20:40:24.741Z,86.60
2019-03-24T20:42:53.427Z,92.03
2019-03-24T20:45:22.005Z,94.80
2019-03-24T20:47:50.667Z,85.27
2019-03-24T20:50:19.388Z,91.90
2019-03-24T20:52:47.978Z,82.57
2019-03-24T20:55:16.615Z,88.47
2019-03-24T20:57:45.196Z,94.03
2019-03-24T21:00:15.091Z,89.73
2019-03-24T21:02:43.667Z,101.60
2019-03-24T21:05:12.316Z,93.63
2019-03-24T21:07:40.992Z,104.87
2019-03-24T21:10:09.695Z,95.53
2019-03-24T21:12:38.330Z,98.73
2019-03-24T21:15:07.922Z,91.47
2019-03-24T21:17:36.584Z,85.77
2019-03-24T21:20:07.772Z,89.93
2019-03-24T21:22:36.395Z,77.47
2019-03-24T21:25:06.712Z,80.97
2019-03-24T21:27:35.267Z,78.83
2019-03-24T21:30:05.863Z,80.50
2019-03-24T21:32:34.419Z,83.43
2019-03-24T21:35:03.064Z,87.00
2019-03-24T21:37:31.699Z,86.83
2019-03-24T21:40:00.343Z,88.77
2019-03-24T21:42:28.963Z,91.07
2019-03-24T21:44:57.531Z,93.90
2019-03-24T21:47:26.087Z,87.17
2019-03-24T21:49:54.712Z,89.87
2019-03-24T21:52:23.285Z,93.53
2019-03-24T21:54:51.859Z,93.03
2019-03-24T21:57:20.417Z,91.23
2019-03-24T21:59:49.003Z,95.47
2019-03-24T22:02:17.609Z,93.07
2019-03-24T22:04:46.238Z,96.67
2019-03-24T22:07:14.858Z,104.73
2019-03-24T22:09:43.436Z,98.47
2019-03-24T22:12:12.028Z,98.67
2019-03-24T22:14:40.615Z,96.47
2019-03-24T22:17:09.384Z,99.93
2019-03-24T22:19:38.774Z,103.33
2019-03-24T22:22:07.455Z,89.47
2019-03-24T22:24:36.041Z,95.57
2019-03-24T22:27:04.663Z,105.83
2019-03-24T22:29:33.230Z,92.03
2019-03-24T22:32:01.827Z,106.80
2019-03-24T22:34:30.417Z,112.23
2019-03-24T22:36:59.002Z,96.90
2019-03-24T22:39:27.750Z,96.70
2019-03-24T22:41:56.297Z,108.83
2019-03-24T22:44:24.947Z,111.10
2019-03-24T22:46:53.573Z,109.87
2019-03-24T22:49:22.253Z,110.13
2019-03-24T22:51:50.805Z,107.90
2019-03-24T22:54:19.384Z,99.50
2019-03-24T22:56:48.048Z,95.00
2019-03-24T22:59:16.579Z,98.40
2019-03-24T23:01:45.239Z,111.27
2019-03-24T23:04:13.828Z,113.83
2019-03-24T23:06:42.499Z,107.90
2019-03-24T23:09:11.419Z,108.57
2019-03-24T23:11:40.047Z,110.03
2019-03-24T23:14:08.627Z,107.73
2019-03-24T23:16:37.191Z,116.43
2019-03-24T23:19:05.839Z,112.90
2019-03-24T23:21:34.471Z,103.97
2019-03-24T23:24:14.617Z,123.17
2019-03-24T23:26:34.966Z,109.43
2019-03-24T23:29:03.608Z,121.63
2019-03-24T23:31:34.132Z,120.13
2019-03-24T23:34:02.752Z,102.90
2019-03-24T23:36:31.415Z,105.73
2019-03-24T23:38:59.967Z,110.80
2019-03-24T23:41:28.596Z,118.23
2019-03-24T23:43:57.156Z,108.40
2019-03-24T23:46:25.736Z,125.27
2019-03-24T23:48:54.288Z,110.33
2019-03-24T23:51:22.865Z,112.33
2019-03-24T23:53:51.435Z,112.33
2019-03-24T23:56:20.016Z,117.60
2019-03-24T23:58:48.580Z,108.90
